TimeEDT,TemperatureF,Dew PointF,Humidity,Sea Level PressureIn,VisibilityMPH,Wind Direction,Wind SpeedMPH,Gust SpeedMPH,PrecipitationIn,Events,Conditions,WindDirDegrees,DateUTC
12:53 AM,53.1,50.0,89,30.25,10.0,ENE,10.4,-,N/A,,Partly Cloudy,60,2013-05-01 04:53:00
1:11 AM,51.8,50.0,94,30.24,10.0,ENE,10.4,17.3,N/A,,Mostly Cloudy,60,2013-05-01 05:11:00
1:20 AM,51.8,50.0,94,30.24,10.0,NE,9.2,-,N/A,,Scattered Clouds,50,2013-05-01 05:20:00
1:53 AM,52.0,48.9,89,30.25,10.0,NE,8.1,-,N/A,,Scattered Clouds,50,2013-05-01 05:53:00
2:53 AM,51.1,48.0,89,30.25,10.0,North,6.9,-,N/A,,Partly Cloudy,10,2013-05-01 06:53:00
3:53 AM,50.0,48.0,93,30.26,10.0,NNE,8.1,-,N/A,,Partly Cloudy,30,2013-05-01 07:53:00
4:53 AM,50.0,46.9,89,30.26,10.0,NE,9.2,-,N/A,,Clear,40,2013-05-01 08:53:00
5:53 AM,51.1,48.0,89,30.28,10.0,NNE,11.5,-,N/A,,Clear,30,2013-05-01 09:53:00
6:53 AM,52.0,48.9,89,30.30,10.0,NE,11.5,18.4,N/A,,Clear,50,2013-05-01 10:53:00
7:53 AM,54.0,50.0,86,30.31,10.0,NE,11.5,-,N/A,,Clear,50,2013-05-01 11:53:00
8:53 AM,55.0,50.0,83,30.34,10.0,NE,15.0,-,N/A,,Clear,50,2013-05-01 12:53:00
9:53 AM,55.0,48.9,80,30.36,10.0,NE,13.8,-,N/A,,Clear,50,2013-05-01 13:53:00
10:53 AM,57.0,48.9,74,30.39,10.0,ENE,13.8,20.7,N/A,,Clear,60,2013-05-01 14:53:00
11:53 AM,55.9,48.9,77,30.39,10.0,NE,15.0,25.3,N/A,,Clear,50,2013-05-01 15:53:00
12:53 PM,54.0,48.0,80,30.38,10.0,ENE,13.8,23.0,N/A,,Clear,70,2013-05-01 16:53:00
1:49 PM,53.6,48.2,82,30.40,10.0,ENE,15.0,25.3,N/A,,Mostly Cloudy,60,2013-05-01 17:49:00
1:53 PM,54.0,48.0,80,30.40,10.0,ENE,17.3,25.3,N/A,,Mostly Cloudy,60,2013-05-01 17:53:00
2:19 PM,53.6,48.2,82,30.39,10.0,NE,12.7,23.0,N/A,,Partly Cloudy,40,2013-05-01 18:19:00
2:53 PM,54.0,48.0,80,30.40,10.0,NE,16.1,25.3,N/A,,Mostly Cloudy,50,2013-05-01 18:53:00
3:53 PM,53.1,48.0,83,30.40,10.0,ENE,15.0,21.9,N/A,,Overcast,60,2013-05-01 19:53:00
4:45 PM,51.8,48.2,88,30.41,10.0,NE,13.8,23.0,N/A,,Overcast,50,2013-05-01 20:45:00
4:53 PM,52.0,48.9,89,30.40,10.0,NE,13.8,21.9,N/A,,Overcast,40,2013-05-01 20:53:00
5:53 PM,51.1,48.9,92,30.41,10.0,NE,12.7,-,N/A,,Overcast,50,2013-05-01 21:53:00
6:53 PM,50.0,48.0,93,30.41,10.0,North,-9999.0,-,N/A,,Overcast,0,2013-05-01 22:53:00
7:53 PM,50.0,48.0,93,30.41,10.0,NNE,8.1,-,N/A,,Overcast,30,2013-05-01 23:53:00
8:53 PM,50.0,48.0,93,30.42,10.0,NNE,8.1,17.3,N/A,,Overcast,30,2013-05-02 00:53:00
9:53 PM,50.0,48.9,96,30.42,10.0,NE,10.4,-,N/A,,Overcast,40,2013-05-02 01:53:00
10:53 PM,48.9,48.0,97,30.42,10.0,NE,11.5,-,N/A,,Overcast,40,2013-05-02 02:53:00
11:53 PM,48.9,48.9,100,30.40,9.0,NE,11.5,-,N/A,,Overcast,40,2013-05-02 03:53:00